アルジェ の空港の天気 - METARとTAF

ウアリ・ブーメディアン空港 ( DAAG / ALG ) - アルジェリア アルジェ
飛行場実況気象(Metar)
観測時間05/28 11:00 CET (05/28 10:00 UTC)
風向・風速西北西 2m/s
視程10km以上
天気現象
なし
気温27℃
湿度39%
気圧1017hPa
METARDAAG 281000Z 29004KT 220V030 CAVOK 27/12 Q1017
過去の天気等 Google飛行場航空写真 Wunderground天気予報

過去48時間のMETAR

飛行場予報(TAF)
発表時間: 5/28 06:00 CET (5/28 05:00 UTC)
予報対象時間: 28日7時 CET ~ 29日7時 CET
風向・風速不定 1m/s
視程10km以上
少しの雲 雲底高度 790m
28日9時 CET ~ 28日11時 CET に徐々に
風向・風速北西 5m/s
28日13時 CET ~ 28日15時 CET に徐々に
風向・風速東北東 5m/s
TAF DAAG 280500Z 2806/2906 VRB02KT 9999 FEW026
BECMG 2808/2810 32010KT
BECMG 2812/2814 06010KT